sensor_id;sensor_type;location;lat;lon;timestamp;temperature;humidity
19803;DHT22;66074;50.764;6.090;2023-02-28T00:00:52;2.30;85.30
19803;DHT22;66074;50.764;6.090;2023-02-28T00:03:17;2.30;85.70
19803;DHT22;66074;50.764;6.090;2023-02-28T00:05:43;2.30;85.60
19803;DHT22;66074;50.764;6.090;2023-02-28T00:08:09;2.30;85.50
19803;DHT22;66074;50.764;6.090;2023-02-28T00:10:35;2.20;86.30
19803;DHT22;66074;50.764;6.090;2023-02-28T00:13:03;2.20;85.70
19803;DHT22;66074;50.764;6.090;2023-02-28T00:15:30;2.20;86.00
19803;DHT22;66074;50.764;6.090;2023-02-28T00:17:56;2.10;85.60
19803;DHT22;66074;50.764;6.090;2023-02-28T00:20:21;2.20;86.20
19803;DHT22;66074;50.764;6.090;2023-02-28T00:22:50;2.10;85.80
19803;DHT22;66074;50.764;6.090;2023-02-28T00:25:19;2.00;85.90
19803;DHT22;66074;50.764;6.090;2023-02-28T00:27:45;2.00;85.90
19803;DHT22;66074;50.764;6.090;2023-02-28T00:30:14;2.00;86.40
19803;DHT22;66074;50.764;6.090;2023-02-28T00:32:40;1.90;86.20
19803;DHT22;66074;50.764;6.090;2023-02-28T00:35:07;1.90;85.80
19803;DHT22;66074;50.764;6.090;2023-02-28T00:37:33;1.90;85.80
19803;DHT22;66074;50.764;6.090;2023-02-28T00:39:59;1.90;85.70
19803;DHT22;66074;50.764;6.090;2023-02-28T00:42:25;1.90;85.80
19803;DHT22;66074;50.764;6.090;2023-02-28T00:44:50;1.90;85.80
19803;DHT22;66074;50.764;6.090;2023-02-28T00:47:16;1.90;85.60
19803;DHT22;66074;50.764;6.090;2023-02-28T00:49:41;2.00;85.80
19803;DHT22;66074;50.764;6.090;2023-02-28T00:52:07;2.00;85.90
19803;DHT22;66074;50.764;6.090;2023-02-28T00:54:33;2.00;85.80
19803;DHT22;66074;50.764;6.090;2023-02-28T00:56:59;2.00;85.80
19803;DHT22;66074;50.764;6.090;2023-02-28T00:59:25;2.00;85.80
19803;DHT22;66074;50.764;6.090;2023-02-28T01:01:51;2.00;85.90
19803;DHT22;66074;50.764;6.090;2023-02-28T01:04:17;2.00;85.80
19803;DHT22;66074;50.764;6.090;2023-02-28T01:06:43;2.00;85.90
19803;DHT22;66074;50.764;6.090;2023-02-28T01:09:08;1.90;85.80
19803;DHT22;66074;50.764;6.090;2023-02-28T01:11:35;2.00;85.90
19803;DHT22;66074;50.764;6.090;2023-02-28T01:14:01;1.90;85.80
19803;DHT22;66074;50.764;6.090;2023-02-28T01:16:27;1.90;85.80
19803;DHT22;66074;50.764;6.090;2023-02-28T01:18:53;1.90;85.70
19803;DHT22;66074;50.764;6.090;2023-02-28T01:21:20;1.90;85.60
19803;DHT22;66074;50.764;6.090;2023-02-28T01:23:47;1.90;85.90
19803;DHT22;66074;50.764;6.090;2023-02-28T01:26:18;1.90;85.80
19803;DHT22;66074;50.764;6.090;2023-02-28T01:28:44;1.80;85.90
19803;DHT22;66074;50.764;6.090;2023-02-28T01:31:10;1.90;85.90
19803;DHT22;66074;50.764;6.090;2023-02-28T01:33:37;1.80;85.70
19803;DHT22;66074;50.764;6.090;2023-02-28T01:36:08;1.80;85.80
19803;DHT22;66074;50.764;6.090;2023-02-28T01:38:34;1.80;86.10
19803;DHT22;66074;50.764;6.090;2023-02-28T01:41:00;1.80;85.90
19803;DHT22;66074;50.764;6.090;2023-02-28T01:43:32;1.80;86.10
19803;DHT22;66074;50.764;6.090;2023-02-28T01:46:16;1.70;86.30
19803;DHT22;66074;50.764;6.090;2023-02-28T01:51:22;1.60;86.50
19803;DHT22;66074;50.764;6.090;2023-02-28T01:53:52;1.50;86.40
19803;DHT22;66074;50.764;6.090;2023-02-28T01:56:22;1.50;86.20
19803;DHT22;66074;50.764;6.090;2023-02-28T01:58:51;1.50;86.10
19803;DHT22;66074;50.764;6.090;2023-02-28T02:01:18;1.40;86.80
19803;DHT22;66074;50.764;6.090;2023-02-28T02:03:50;1.40;86.90
19803;DHT22;66074;50.764;6.090;2023-02-28T02:06:35;1.50;86.60
19803;DHT22;66074;50.764;6.090;2023-02-28T02:09:02;1.40;87.30
19803;DHT22;66074;50.764;6.090;2023-02-28T02:11:28;1.30;86.80
19803;DHT22;66074;50.764;6.090;2023-02-28T02:23:07;1.30;87.20
19803;DHT22;66074;50.764;6.090;2023-02-28T02:25:58;1.30;87.30
19803;DHT22;66074;50.764;6.090;2023-02-28T02:31:33;1.30;87.00
19803;DHT22;66074;50.764;6.090;2023-02-28T02:37:00;1.30;86.70
19803;DHT22;66074;50.764;6.090;2023-02-28T02:42:09;1.30;86.80
19803;DHT22;66074;50.764;6.090;2023-02-28T02:44:46;1.40;86.40
19803;DHT22;66074;50.764;6.090;2023-02-28T02:47:16;1.30;86.40
19803;DHT22;66074;50.764;6.090;2023-02-28T02:49:47;1.30;86.60
19803;DHT22;66074;50.764;6.090;2023-02-28T02:52:17;1.30;86.30
19803;DHT22;66074;50.764;6.090;2023-02-28T02:54:46;1.30;86.50
19803;DHT22;66074;50.764;6.090;2023-02-28T02:57:25;1.30;86.60
19803;DHT22;66074;50.764;6.090;2023-02-28T02:59:53;1.30;86.30
19803;DHT22;66074;50.764;6.090;2023-02-28T03:02:21;1.30;86.50
19803;DHT22;66074;50.764;6.090;2023-02-28T03:04:58;1.30;86.40
19803;DHT22;66074;50.764;6.090;2023-02-28T03:07:28;1.30;86.90
19803;DHT22;66074;50.764;6.090;2023-02-28T03:09:54;1.30;86.90
19803;DHT22;66074;50.764;6.090;2023-02-28T03:12:22;1.30;87.00
19803;DHT22;66074;50.764;6.090;2023-02-28T03:15:10;1.30;87.10
19803;DHT22;66074;50.764;6.090;2023-02-28T03:18:01;1.30;87.20
19803;DHT22;66074;50.764;6.090;2023-02-28T03:26:27;1.20;87.70
19803;DHT22;66074;50.764;6.090;2023-02-28T03:29:19;1.30;87.40
19803;DHT22;66074;50.764;6.090;2023-02-28T03:31:57;1.30;87.90
19803;DHT22;66074;50.764;6.090;2023-02-28T03:34:34;1.40;87.80
19803;DHT22;66074;50.764;6.090;2023-02-28T03:37:05;1.40;87.70
19803;DHT22;66074;50.764;6.090;2023-02-28T03:39:57;1.50;87.60
19803;DHT22;66074;50.764;6.090;2023-02-28T03:42:28;1.60;88.00
19803;DHT22;66074;50.764;6.090;2023-02-28T03:44:58;1.60;87.30
19803;DHT22;66074;50.764;6.090;2023-02-28T03:47:50;1.60;87.50
19803;DHT22;66074;50.764;6.090;2023-02-28T03:50:34;1.60;87.50
19803;DHT22;66074;50.764;6.090;2023-02-28T03:53:20;1.60;87.80
19803;DHT22;66074;50.764;6.090;2023-02-28T03:55:51;1.60;87.70
19803;DHT22;66074;50.764;6.090;2023-02-28T03:58:42;1.70;87.40
19803;DHT22;66074;50.764;6.090;2023-02-28T04:01:17;1.60;87.40
19803;DHT22;66074;50.764;6.090;2023-02-28T04:03:44;1.50;87.30
19803;DHT22;66074;50.764;6.090;2023-02-28T04:06:15;1.50;87.10
19803;DHT22;66074;50.764;6.090;2023-02-28T04:08:42;1.50;87.30
19803;DHT22;66074;50.764;6.090;2023-02-28T04:11:28;1.40;87.10
19803;DHT22;66074;50.764;6.090;2023-02-28T04:13:55;1.40;87.30
19803;DHT22;66074;50.764;6.090;2023-02-28T04:16:21;1.30;87.10
19803;DHT22;66074;50.764;6.090;2023-02-28T04:18:47;1.30;87.00
19803;DHT22;66074;50.764;6.090;2023-02-28T04:21:12;1.20;86.90
19803;DHT22;66074;50.764;6.090;2023-02-28T04:23:38;1.20;87.20
19803;DHT22;66074;50.764;6.090;2023-02-28T04:26:04;1.20;87.30
19803;DHT22;66074;50.764;6.090;2023-02-28T04:28:31;1.20;87.10
19803;DHT22;66074;50.764;6.090;2023-02-28T04:30:59;1.20;86.90
19803;DHT22;66074;50.764;6.090;2023-02-28T04:33:26;1.20;87.20
19803;DHT22;66074;50.764;6.090;2023-02-28T04:35:59;1.10;87.10
19803;DHT22;66074;50.764;6.090;2023-02-28T04:38:25;1.20;87.80
19803;DHT22;66074;50.764;6.090;2023-02-28T04:40:50;1.00;87.10
19803;DHT22;66074;50.764;6.090;2023-02-28T04:43:16;1.00;87.20
19803;DHT22;66074;50.764;6.090;2023-02-28T04:45:42;1.00;87.30
19803;DHT22;66074;50.764;6.090;2023-02-28T04:48:07;1.00;87.10
19803;DHT22;66074;50.764;6.090;2023-02-28T04:50:33;1.00;87.30
19803;DHT22;66074;50.764;6.090;2023-02-28T04:52:59;1.00;87.50
19803;DHT22;66074;50.764;6.090;2023-02-28T04:55:24;1.00;87.40
19803;DHT22;66074;50.764;6.090;2023-02-28T04:57:50;1.00;87.60
19803;DHT22;66074;50.764;6.090;2023-02-28T05:00:15;1.00;87.70
19803;DHT22;66074;50.764;6.090;2023-02-28T05:02:42;1.00;87.70
19803;DHT22;66074;50.764;6.090;2023-02-28T05:05:08;1.00;87.80
19803;DHT22;66074;50.764;6.090;2023-02-28T05:07:33;1.00;87.80
19803;DHT22;66074;50.764;6.090;2023-02-28T05:09:59;1.00;88.20
19803;DHT22;66074;50.764;6.090;2023-02-28T05:12:25;1.00;88.30
19803;DHT22;66074;50.764;6.090;2023-02-28T05:14:50;1.10;88.30
19803;DHT22;66074;50.764;6.090;2023-02-28T05:17:16;1.10;88.20
19803;DHT22;66074;50.764;6.090;2023-02-28T05:19:42;1.10;88.40
19803;DHT22;66074;50.764;6.090;2023-02-28T05:22:14;1.10;88.20
19803;DHT22;66074;50.764;6.090;2023-02-28T05:24:41;1.10;88.40
19803;DHT22;66074;50.764;6.090;2023-02-28T05:27:08;1.00;88.10
19803;DHT22;66074;50.764;6.090;2023-02-28T05:29:34;1.00;87.90
19803;DHT22;66074;50.764;6.090;2023-02-28T05:32:10;0.90;87.90
19803;DHT22;66074;50.764;6.090;2023-02-28T05:34:40;0.90;88.20
19803;DHT22;66074;50.764;6.090;2023-02-28T05:37:09;0.90;88.50
19803;DHT22;66074;50.764;6.090;2023-02-28T05:39:36;0.90;88.20
19803;DHT22;66074;50.764;6.090;2023-02-28T05:42:02;1.00;88.50
19803;DHT22;66074;50.764;6.090;2023-02-28T05:44:28;1.10;88.50
19803;DHT22;66074;50.764;6.090;2023-02-28T05:46:53;1.20;88.60
19803;DHT22;66074;50.764;6.090;2023-02-28T05:49:19;1.20;88.50
19803;DHT22;66074;50.764;6.090;2023-02-28T05:51:45;1.30;88.40
19803;DHT22;66074;50.764;6.090;2023-02-28T05:54:10;1.20;88.30
19803;DHT22;66074;50.764;6.090;2023-02-28T05:56:36;1.20;88.20
19803;DHT22;66074;50.764;6.090;2023-02-28T05:59:04;1.20;88.30
19803;DHT22;66074;50.764;6.090;2023-02-28T06:01:34;1.10;88.20
19803;DHT22;66074;50.764;6.090;2023-02-28T06:04:01;1.10;88.30
19803;DHT22;66074;50.764;6.090;2023-02-28T06:06:27;1.00;88.90
19803;DHT22;66074;50.764;6.090;2023-02-28T06:08:53;1.00;88.30
19803;DHT22;66074;50.764;6.090;2023-02-28T06:11:19;0.90;88.30
19803;DHT22;66074;50.764;6.090;2023-02-28T06:13:46;0.90;88.60
19803;DHT22;66074;50.764;6.090;2023-02-28T06:16:11;0.80;88.60
19803;DHT22;66074;50.764;6.090;2023-02-28T06:18:37;0.80;88.40
19803;DHT22;66074;50.764;6.090;2023-02-28T06:21:03;0.70;88.50
19803;DHT22;66074;50.764;6.090;2023-02-28T06:23:29;0.70;88.90
19803;DHT22;66074;50.764;6.090;2023-02-28T06:25:54;0.70;88.70
19803;DHT22;66074;50.764;6.090;2023-02-28T06:28:24;0.70;88.50
19803;DHT22;66074;50.764;6.090;2023-02-28T06:30:49;0.70;88.90
19803;DHT22;66074;50.764;6.090;2023-02-28T06:33:15;0.70;88.80
19803;DHT22;66074;50.764;6.090;2023-02-28T06:35:44;0.60;88.60
19803;DHT22;66074;50.764;6.090;2023-02-28T06:38:11;0.60;89.00
19803;DHT22;66074;50.764;6.090;2023-02-28T06:40:37;0.60;88.80
19803;DHT22;66074;50.764;6.090;2023-02-28T06:43:03;0.60;88.80
19803;DHT22;66074;50.764;6.090;2023-02-28T06:45:28;0.60;88.80
19803;DHT22;66074;50.764;6.090;2023-02-28T06:47:54;0.60;88.80
19803;DHT22;66074;50.764;6.090;2023-02-28T06:50:20;0.60;89.00
19803;DHT22;66074;50.764;6.090;2023-02-28T06:52:46;0.60;88.80
19803;DHT22;66074;50.764;6.090;2023-02-28T06:55:12;0.60;88.90
19803;DHT22;66074;50.764;6.090;2023-02-28T06:57:38;0.70;88.80
19803;DHT22;66074;50.764;6.090;2023-02-28T07:00:07;0.70;88.90
19803;DHT22;66074;50.764;6.090;2023-02-28T07:02:37;0.70;88.90
19803;DHT22;66074;50.764;6.090;2023-02-28T07:05:04;0.70;89.00
19803;DHT22;66074;50.764;6.090;2023-02-28T07:07:30;0.70;88.70
19803;DHT22;66074;50.764;6.090;2023-02-28T07:09:55;0.70;89.00
19803;DHT22;66074;50.764;6.090;2023-02-28T07:12:21;0.70;88.70
19803;DHT22;66074;50.764;6.090;2023-02-28T07:14:47;0.70;88.70
19803;DHT22;66074;50.764;6.090;2023-02-28T07:17:13;0.80;88.80
19803;DHT22;66074;50.764;6.090;2023-02-28T07:19:39;0.70;88.50
19803;DHT22;66074;50.764;6.090;2023-02-28T07:22:05;0.70;88.70
19803;DHT22;66074;50.764;6.090;2023-02-28T07:24:31;0.70;88.80
19803;DHT22;66074;50.764;6.090;2023-02-28T07:26:57;0.70;88.70
19803;DHT22;66074;50.764;6.090;2023-02-28T07:29:22;0.80;88.80
19803;DHT22;66074;50.764;6.090;2023-02-28T07:31:48;0.80;88.80
19803;DHT22;66074;50.764;6.090;2023-02-28T07:34:15;0.80;88.60
19803;DHT22;66074;50.764;6.090;2023-02-28T07:36:41;0.90;88.60
19803;DHT22;66074;50.764;6.090;2023-02-28T07:39:07;0.90;88.50
19803;DHT22;66074;50.764;6.090;2023-02-28T07:41:34;0.90;88.40
19803;DHT22;66074;50.764;6.090;2023-02-28T07:44:04;1.00;88.40
19803;DHT22;66074;50.764;6.090;2023-02-28T07:46:30;1.00;88.30
19803;DHT22;66074;50.764;6.090;2023-02-28T07:49:00;1.00;88.30
19803;DHT22;66074;50.764;6.090;2023-02-28T07:51:28;1.00;88.20
19803;DHT22;66074;50.764;6.090;2023-02-28T07:53:54;1.00;87.90
19803;DHT22;66074;50.764;6.090;2023-02-28T07:56:20;1.10;88.10
19803;DHT22;66074;50.764;6.090;2023-02-28T07:58:45;1.10;87.60
19803;DHT22;66074;50.764;6.090;2023-02-28T08:01:11;1.10;87.40
19803;DHT22;66074;50.764;6.090;2023-02-28T08:03:38;1.20;87.40
19803;DHT22;66074;50.764;6.090;2023-02-28T08:06:06;1.20;87.40
19803;DHT22;66074;50.764;6.090;2023-02-28T08:08:32;1.30;87.40
19803;DHT22;66074;50.764;6.090;2023-02-28T08:11:02;1.40;87.00
19803;DHT22;66074;50.764;6.090;2023-02-28T08:13:29;1.40;86.90
19803;DHT22;66074;50.764;6.090;2023-02-28T08:15:55;1.40;86.50
19803;DHT22;66074;50.764;6.090;2023-02-28T08:18:22;1.50;86.30
19803;DHT22;66074;50.764;6.090;2023-02-28T08:20:48;1.40;85.70
19803;DHT22;66074;50.764;6.090;2023-02-28T08:23:14;1.40;86.00
19803;DHT22;66074;50.764;6.090;2023-02-28T08:25:40;1.50;85.80
19803;DHT22;66074;50.764;6.090;2023-02-28T08:28:05;1.50;85.60
19803;DHT22;66074;50.764;6.090;2023-02-28T08:30:31;1.60;85.50
19803;DHT22;66074;50.764;6.090;2023-02-28T08:32:57;1.60;85.30
19803;DHT22;66074;50.764;6.090;2023-02-28T08:35:22;1.60;85.00
19803;DHT22;66074;50.764;6.090;2023-02-28T08:37:49;1.60;84.60
19803;DHT22;66074;50.764;6.090;2023-02-28T08:40:15;1.60;84.70
19803;DHT22;66074;50.764;6.090;2023-02-28T08:42:47;1.70;84.90
19803;DHT22;66074;50.764;6.090;2023-02-28T08:45:14;1.80;84.30
19803;DHT22;66074;50.764;6.090;2023-02-28T08:47:40;1.90;84.50
19803;DHT22;66074;50.764;6.090;2023-02-28T08:50:07;1.90;84.70
19803;DHT22;66074;50.764;6.090;2023-02-28T08:52:33;2.10;84.00
19803;DHT22;66074;50.764;6.090;2023-02-28T08:54:59;2.20;83.70
19803;DHT22;66074;50.764;6.090;2023-02-28T08:57:25;2.30;83.50
19803;DHT22;66074;50.764;6.090;2023-02-28T08:59:53;2.70;81.20
19803;DHT22;66074;50.764;6.090;2023-02-28T09:02:18;2.70;81.90
19803;DHT22;66074;50.764;6.090;2023-02-28T09:04:44;2.80;81.60
19803;DHT22;66074;50.764;6.090;2023-02-28T09:07:13;2.80;80.90
19803;DHT22;66074;50.764;6.090;2023-02-28T09:09:39;2.70;80.60
19803;DHT22;66074;50.764;6.090;2023-02-28T09:12:21;2.50;79.20
19803;DHT22;66074;50.764;6.090;2023-02-28T09:14:47;2.70;79.30
19803;DHT22;66074;50.764;6.090;2023-02-28T09:17:13;2.80;81.10
19803;DHT22;66074;50.764;6.090;2023-02-28T09:19:38;2.80;79.10
19803;DHT22;66074;50.764;6.090;2023-02-28T09:22:04;2.80;80.50
19803;DHT22;66074;50.764;6.090;2023-02-28T09:24:29;2.80;78.40
19803;DHT22;66074;50.764;6.090;2023-02-28T09:26:57;2.70;79.10
19803;DHT22;66074;50.764;6.090;2023-02-28T09:29:23;2.80;80.20
19803;DHT22;66074;50.764;6.090;2023-02-28T09:31:48;2.90;79.60
19803;DHT22;66074;50.764;6.090;2023-02-28T09:34:14;3.00;79.90
19803;DHT22;66074;50.764;6.090;2023-02-28T09:36:41;3.00;79.50
19803;DHT22;66074;50.764;6.090;2023-02-28T09:39:06;3.20;79.20
19803;DHT22;66074;50.764;6.090;2023-02-28T09:41:38;3.20;80.00
19803;DHT22;66074;50.764;6.090;2023-02-28T09:46:49;3.40;79.20
19803;DHT22;66074;50.764;6.090;2023-02-28T09:49:21;3.50;79.60
19803;DHT22;66074;50.764;6.090;2023-02-28T09:52:07;3.60;78.60
19803;DHT22;66074;50.764;6.090;2023-02-28T09:54:35;3.70;78.30
19803;DHT22;66074;50.764;6.090;2023-02-28T09:57:06;3.80;78.00
19803;DHT22;66074;50.764;6.090;2023-02-28T10:05:07;4.10;76.50
19803;DHT22;66074;50.764;6.090;2023-02-28T10:07:52;4.10;75.60
19803;DHT22;66074;50.764;6.090;2023-02-28T10:10:26;4.00;76.10
19803;DHT22;66074;50.764;6.090;2023-02-28T10:12:55;3.90;76.50
19803;DHT22;66074;50.764;6.090;2023-02-28T10:15:24;3.80;74.70
19803;DHT22;66074;50.764;6.090;2023-02-28T10:17:55;3.60;73.60
19803;DHT22;66074;50.764;6.090;2023-02-28T10:20:24;3.50;74.20
19803;DHT22;66074;50.764;6.090;2023-02-28T10:25:34;3.70;73.50
19803;DHT22;66074;50.764;6.090;2023-02-28T10:28:15;3.80;74.50
19803;DHT22;66074;50.764;6.090;2023-02-28T10:30:52;3.70;72.20
19803;DHT22;66074;50.764;6.090;2023-02-28T10:33:22;3.50;71.10
19803;DHT22;66074;50.764;6.090;2023-02-28T10:35:49;3.40;70.90
19803;DHT22;66074;50.764;6.090;2023-02-28T10:38:24;3.50;72.40
19803;DHT22;66074;50.764;6.090;2023-02-28T10:40:50;3.50;68.50
19803;DHT22;66074;50.764;6.090;2023-02-28T10:48:34;3.80;70.40
19803;DHT22;66074;50.764;6.090;2023-02-28T10:51:00;3.90;69.30
19803;DHT22;66074;50.764;6.090;2023-02-28T10:53:48;4.00;71.50
19803;DHT22;66074;50.764;6.090;2023-02-28T10:56:22;4.00;68.40
19803;DHT22;66074;50.764;6.090;2023-02-28T11:03:50;4.00;69.10
19803;DHT22;66074;50.764;6.090;2023-02-28T11:06:36;4.00;69.00
19803;DHT22;66074;50.764;6.090;2023-02-28T11:09:22;3.90;67.70
19803;DHT22;66074;50.764;6.090;2023-02-28T11:11:49;4.00;68.60
19803;DHT22;66074;50.764;6.090;2023-02-28T11:14:22;4.10;70.30
19803;DHT22;66074;50.764;6.090;2023-02-28T11:16:50;4.00;70.80
19803;DHT22;66074;50.764;6.090;2023-02-28T11:19:29;4.20;70.50
19803;DHT22;66074;50.764;6.090;2023-02-28T11:22:02;4.20;70.10
19803;DHT22;66074;50.764;6.090;2023-02-28T11:24:35;4.30;70.80
19803;DHT22;66074;50.764;6.090;2023-02-28T11:27:02;4.30;71.00
19803;DHT22;66074;50.764;6.090;2023-02-28T11:29:32;4.40;70.90
19803;DHT22;66074;50.764;6.090;2023-02-28T11:34:27;4.10;68.10
19803;DHT22;66074;50.764;6.090;2023-02-28T11:36:54;4.20;70.10
19803;DHT22;66074;50.764;6.090;2023-02-28T11:39:22;4.20;70.20
19803;DHT22;66074;50.764;6.090;2023-02-28T11:47:42;4.50;70.60
19803;DHT22;66074;50.764;6.090;2023-02-28T11:53:10;4.40;70.20
19803;DHT22;66074;50.764;6.090;2023-02-28T11:55:46;4.50;68.80
19803;DHT22;66074;50.764;6.090;2023-02-28T11:58:55;4.50;71.00
19803;DHT22;66074;50.764;6.090;2023-02-28T12:10:26;4.50;70.90
19803;DHT22;66074;50.764;6.090;2023-02-28T12:13:26;4.60;69.00
19803;DHT22;66074;50.764;6.090;2023-02-28T12:27:07;4.60;70.50
19803;DHT22;66074;50.764;6.090;2023-02-28T12:29:51;4.70;69.30
19803;DHT22;66074;50.764;6.090;2023-02-28T12:32:43;4.80;71.10
19803;DHT22;66074;50.764;6.090;2023-02-28T12:35:14;4.90;68.80
19803;DHT22;66074;50.764;6.090;2023-02-28T12:37:57;4.90;70.60
19803;DHT22;66074;50.764;6.090;2023-02-28T12:40:28;4.90;69.00
19803;DHT22;66074;50.764;6.090;2023-02-28T12:43:02;5.00;69.70
19803;DHT22;66074;50.764;6.090;2023-02-28T12:48:44;5.00;67.50
19803;DHT22;66074;50.764;6.090;2023-02-28T12:51:12;4.90;67.20
19803;DHT22;66074;50.764;6.090;2023-02-28T12:56:42;5.00;68.20
19803;DHT22;66074;50.764;6.090;2023-02-28T12:59:39;5.00;67.70
19803;DHT22;66074;50.764;6.090;2023-02-28T13:10:49;5.30;68.60
19803;DHT22;66074;50.764;6.090;2023-02-28T13:13:30;5.30;69.60
19803;DHT22;66074;50.764;6.090;2023-02-28T13:18:36;5.40;68.60
19803;DHT22;66074;50.764;6.090;2023-02-28T13:21:04;5.40;68.00
19803;DHT22;66074;50.764;6.090;2023-02-28T13:26:18;5.40;67.60
19803;DHT22;66074;50.764;6.090;2023-02-28T13:31:19;5.40;68.00
19803;DHT22;66074;50.764;6.090;2023-02-28T13:36:31;5.60;69.20
19803;DHT22;66074;50.764;6.090;2023-02-28T13:39:03;5.80;68.80
19803;DHT22;66074;50.764;6.090;2023-02-28T13:44:18;6.00;69.60
19803;DHT22;66074;50.764;6.090;2023-02-28T13:51:52;6.90;70.10
19803;DHT22;66074;50.764;6.090;2023-02-28T14:05:27;14.90;58.20
19803;DHT22;66074;50.764;6.090;2023-02-28T14:07:57;15.00;56.30
19803;DHT22;66074;50.764;6.090;2023-02-28T14:10:42;15.30;59.30
19803;DHT22;66074;50.764;6.090;2023-02-28T14:16:06;16.10;52.80
19803;DHT22;66074;50.764;6.090;2023-02-28T14:18:38;16.90;54.70
19803;DHT22;66074;50.764;6.090;2023-02-28T14:21:22;16.10;56.70
19803;DHT22;66074;50.764;6.090;2023-02-28T14:32:21;15.30;53.60
19803;DHT22;66074;50.764;6.090;2023-02-28T14:34:55;16.40;54.60
19803;DHT22;66074;50.764;6.090;2023-02-28T14:37:33;16.50;56.40
19803;DHT22;66074;50.764;6.090;2023-02-28T14:40:02;17.60;56.90
19803;DHT22;66074;50.764;6.090;2023-02-28T14:42:33;17.90;57.50
19803;DHT22;66074;50.764;6.090;2023-02-28T14:45:00;18.10;57.60
19803;DHT22;66074;50.764;6.090;2023-02-28T14:47:31;18.40;58.80
19803;DHT22;66074;50.764;6.090;2023-02-28T14:49:59;18.20;56.60
19803;DHT22;66074;50.764;6.090;2023-02-28T14:52:30;16.20;55.50
19803;DHT22;66074;50.764;6.090;2023-02-28T14:55:05;13.70;56.50
19803;DHT22;66074;50.764;6.090;2023-02-28T14:57:35;11.20;55.70
19803;DHT22;66074;50.764;6.090;2023-02-28T15:00:09;9.90;57.40
19803;DHT22;66074;50.764;6.090;2023-02-28T15:02:38;9.30;58.50
19803;DHT22;66074;50.764;6.090;2023-02-28T15:05:21;8.40;58.30
19803;DHT22;66074;50.764;6.090;2023-02-28T15:07:59;7.80;59.40
19803;DHT22;66074;50.764;6.090;2023-02-28T15:10:27;7.50;60.10
19803;DHT22;66074;50.764;6.090;2023-02-28T15:13:05;7.10;60.00
19803;DHT22;66074;50.764;6.090;2023-02-28T15:15:54;6.90;60.50
19803;DHT22;66074;50.764;6.090;2023-02-28T15:21:13;6.60;61.70
19803;DHT22;66074;50.764;6.090;2023-02-28T15:23:43;6.50;62.10
19803;DHT22;66074;50.764;6.090;2023-02-28T15:26:15;6.50;63.20
19803;DHT22;66074;50.764;6.090;2023-02-28T15:28:42;6.50;62.40
19803;DHT22;66074;50.764;6.090;2023-02-28T15:31:27;6.40;62.20
19803;DHT22;66074;50.764;6.090;2023-02-28T15:33:56;6.30;61.80
19803;DHT22;66074;50.764;6.090;2023-02-28T15:36:26;6.10;62.20
19803;DHT22;66074;50.764;6.090;2023-02-28T15:38:53;6.00;62.60
19803;DHT22;66074;50.764;6.090;2023-02-28T15:41:25;5.90;62.80
19803;DHT22;66074;50.764;6.090;2023-02-28T15:44:27;5.90;63.40
19803;DHT22;66074;50.764;6.090;2023-02-28T15:47:03;5.90;63.40
19803;DHT22;66074;50.764;6.090;2023-02-28T15:49:37;5.80;63.50
19803;DHT22;66074;50.764;6.090;2023-02-28T15:52:04;5.70;63.80
19803;DHT22;66074;50.764;6.090;2023-02-28T15:54:33;5.70;64.00
19803;DHT22;66074;50.764;6.090;2023-02-28T15:57:15;5.70;64.30
19803;DHT22;66074;50.764;6.090;2023-02-28T15:59:50;5.80;64.50
19803;DHT22;66074;50.764;6.090;2023-02-28T16:02:23;5.80;64.40
19803;DHT22;66074;50.764;6.090;2023-02-28T16:07:24;5.80;64.50
19803;DHT22;66074;50.764;6.090;2023-02-28T16:09:50;5.80;64.70
19803;DHT22;66074;50.764;6.090;2023-02-28T16:12:16;5.90;64.80
19803;DHT22;66074;50.764;6.090;2023-02-28T16:14:42;5.80;64.70
19803;DHT22;66074;50.764;6.090;2023-02-28T16:17:22;5.80;64.80
19803;DHT22;66074;50.764;6.090;2023-02-28T16:19:48;5.80;64.50
19803;DHT22;66074;50.764;6.090;2023-02-28T16:22:14;5.80;64.50
19803;DHT22;66074;50.764;6.090;2023-02-28T16:24:40;5.70;64.70
19803;DHT22;66074;50.764;6.090;2023-02-28T16:27:06;5.70;64.80
19803;DHT22;66074;50.764;6.090;2023-02-28T16:29:36;5.70;65.00
19803;DHT22;66074;50.764;6.090;2023-02-28T16:32:04;5.70;65.20
19803;DHT22;66074;50.764;6.090;2023-02-28T16:34:31;5.60;65.10
19803;DHT22;66074;50.764;6.090;2023-02-28T16:36:56;5.60;65.20
19803;DHT22;66074;50.764;6.090;2023-02-28T16:39:22;5.60;65.20
19803;DHT22;66074;50.764;6.090;2023-02-28T16:41:49;5.60;65.30
19803;DHT22;66074;50.764;6.090;2023-02-28T16:44:41;5.50;65.00
19803;DHT22;66074;50.764;6.090;2023-02-28T16:47:10;5.40;64.80
19803;DHT22;66074;50.764;6.090;2023-02-28T16:49:35;5.30;65.10
19803;DHT22;66074;50.764;6.090;2023-02-28T16:52:01;5.30;65.60
19803;DHT22;66074;50.764;6.090;2023-02-28T16:54:27;5.30;65.60
19803;DHT22;66074;50.764;6.090;2023-02-28T16:56:52;5.30;66.30
19803;DHT22;66074;50.764;6.090;2023-02-28T16:59:23;5.20;65.50
19803;DHT22;66074;50.764;6.090;2023-02-28T17:01:50;5.20;65.80
19803;DHT22;66074;50.764;6.090;2023-02-28T17:04:17;5.20;65.60
19803;DHT22;66074;50.764;6.090;2023-02-28T17:06:42;5.10;65.80
19803;DHT22;66074;50.764;6.090;2023-02-28T17:09:15;5.10;66.00
19803;DHT22;66074;50.764;6.090;2023-02-28T17:11:41;5.10;66.00
19803;DHT22;66074;50.764;6.090;2023-02-28T17:14:07;5.10;66.20
19803;DHT22;66074;50.764;6.090;2023-02-28T17:16:34;5.10;66.40
19803;DHT22;66074;50.764;6.090;2023-02-28T17:19:05;5.10;66.70
19803;DHT22;66074;50.764;6.090;2023-02-28T17:21:31;5.00;66.90
19803;DHT22;66074;50.764;6.090;2023-02-28T17:23:58;5.00;66.90
19803;DHT22;66074;50.764;6.090;2023-02-28T17:26:24;5.00;67.00
19803;DHT22;66074;50.764;6.090;2023-02-28T17:28:51;4.90;66.90
19803;DHT22;66074;50.764;6.090;2023-02-28T17:31:17;5.00;67.10
19803;DHT22;66074;50.764;6.090;2023-02-28T17:33:44;4.90;67.10
19803;DHT22;66074;50.764;6.090;2023-02-28T17:36:20;4.90;67.20
19803;DHT22;66074;50.764;6.090;2023-02-28T17:38:51;4.90;67.20
19803;DHT22;66074;50.764;6.090;2023-02-28T17:41:17;4.80;67.20
19803;DHT22;66074;50.764;6.090;2023-02-28T17:43:42;4.80;67.30
19803;DHT22;66074;50.764;6.090;2023-02-28T17:46:24;4.80;67.30
19803;DHT22;66074;50.764;6.090;2023-02-28T17:48:51;4.80;67.70
19803;DHT22;66074;50.764;6.090;2023-02-28T17:51:18;4.80;67.80
19803;DHT22;66074;50.764;6.090;2023-02-28T17:53:44;4.80;67.90
19803;DHT22;66074;50.764;6.090;2023-02-28T17:56:20;4.80;67.70
19803;DHT22;66074;50.764;6.090;2023-02-28T17:58:46;4.80;67.90
19803;DHT22;66074;50.764;6.090;2023-02-28T18:01:11;4.80;68.00
19803;DHT22;66074;50.764;6.090;2023-02-28T18:03:38;4.80;68.00
19803;DHT22;66074;50.764;6.090;2023-02-28T18:06:04;4.70;68.10
19803;DHT22;66074;50.764;6.090;2023-02-28T18:08:30;4.70;68.50
19803;DHT22;66074;50.764;6.090;2023-02-28T18:10:56;4.60;68.40
19803;DHT22;66074;50.764;6.090;2023-02-28T18:13:21;4.60;68.60
19803;DHT22;66074;50.764;6.090;2023-02-28T18:15:47;4.60;69.00
19803;DHT22;66074;50.764;6.090;2023-02-28T18:18:13;4.60;69.60
19803;DHT22;66074;50.764;6.090;2023-02-28T18:20:41;4.60;69.60